Elmer, Pennsylvania
Current Conditions -  °F | °C
As of 10:15 PM on Tuesday 25 Nov 2014 (Local Time) from KN38 Reporting Station
Clear Clear  
Wind Chill: 29°   Ceiling: Unl
Heat Index: 34°   Visibility: 10mi
Dew Point: 25°   Wind: 6mph
Humidity: 70%   Direction: 300°WNW
Pressure: 30.12"   Gusts: 12mph
Location:  41.9252°N, 77.5198°W
Report Text: KN38 260315Z AUTO 30005G10KT 10SM CLR 01/M04 A3012 RMK AO2
Loading
Personal Weather Stations






























Interactive Weather Map New forecast layout! Learn more

10-Day Weather Forecast

Advertisements
Track Severe Weather on mobile